sensor_id;sensor_type;location;lat;lon;timestamp;temperature;humidity
52435;DHT22;38354;52.892;6.148;2023-07-20T03:01:36;13.50;99.90
52435;DHT22;38354;52.892;6.148;2023-07-20T03:04:01;13.40;99.90
52435;DHT22;38354;52.892;6.148;2023-07-20T03:06:27;13.40;99.90
52435;DHT22;38354;52.892;6.148;2023-07-20T03:08:53;13.30;99.90
52435;DHT22;38354;52.892;6.148;2023-07-20T03:11:19;13.30;99.90
52435;DHT22;38354;52.892;6.148;2023-07-20T03:13:46;13.30;99.90
52435;DHT22;38354;52.892;6.148;2023-07-20T03:16:12;13.20;99.90
52435;DHT22;38354;52.892;6.148;2023-07-20T03:18:40;13.20;99.90
52435;DHT22;38354;52.892;6.148;2023-07-20T03:21:07;13.20;99.90
52435;DHT22;38354;52.892;6.148;2023-07-20T03:23:33;13.10;99.90
52435;DHT22;38354;52.892;6.148;2023-07-20T03:25:58;13.10;99.90
52435;DHT22;38354;52.892;6.148;2023-07-20T03:28:24;13.10;99.90
52435;DHT22;38354;52.892;6.148;2023-07-20T03:30:53;13.10;99.90
52435;DHT22;38354;52.892;6.148;2023-07-20T03:33:21;13.10;99.90
52435;DHT22;38354;52.892;6.148;2023-07-20T03:35:47;13.00;99.90
52435;DHT22;38354;52.892;6.148;2023-07-20T03:38:12;13.00;99.90
52435;DHT22;38354;52.892;6.148;2023-07-20T03:40:38;13.00;99.90
52435;DHT22;38354;52.892;6.148;2023-07-20T03:43:03;12.90;99.90
52435;DHT22;38354;52.892;6.148;2023-07-20T03:45:29;12.90;99.90
52435;DHT22;38354;52.892;6.148;2023-07-20T03:47:55;12.90;99.90
52435;DHT22;38354;52.892;6.148;2023-07-20T03:50:20;12.90;99.90
52435;DHT22;38354;52.892;6.148;2023-07-20T03:52:46;12.80;99.90
52435;DHT22;38354;52.892;6.148;2023-07-20T03:55:11;12.90;99.90
52435;DHT22;38354;52.892;6.148;2023-07-20T03:57:37;12.90;99.90
52435;DHT22;38354;52.892;6.148;2023-07-20T04:00:03;12.80;99.90
52435;DHT22;38354;52.892;6.148;2023-07-20T04:02:32;12.80;99.90
52435;DHT22;38354;52.892;6.148;2023-07-20T04:04:57;12.80;99.90
52435;DHT22;38354;52.892;6.148;2023-07-20T04:07:23;12.80;99.90
52435;DHT22;38354;52.892;6.148;2023-07-20T04:09:48;12.80;99.90
52435;DHT22;38354;52.892;6.148;2023-07-20T04:12:14;12.80;99.90
52435;DHT22;38354;52.892;6.148;2023-07-20T04:14:39;12.80;99.90
52435;DHT22;38354;52.892;6.148;2023-07-20T04:17:05;12.90;99.90
52435;DHT22;38354;52.892;6.148;2023-07-20T04:19:30;12.80;99.90
52435;DHT22;38354;52.892;6.148;2023-07-20T04:21:56;12.80;99.90
52435;DHT22;38354;52.892;6.148;2023-07-20T04:24:21;12.80;99.90
52435;DHT22;38354;52.892;6.148;2023-07-20T04:26:47;12.80;99.90
52435;DHT22;38354;52.892;6.148;2023-07-20T04:29:13;12.90;99.90
52435;DHT22;38354;52.892;6.148;2023-07-20T04:31:38;12.80;99.90
52435;DHT22;38354;52.892;6.148;2023-07-20T04:34:04;12.80;99.90
52435;DHT22;38354;52.892;6.148;2023-07-20T04:36:29;12.90;99.90
52435;DHT22;38354;52.892;6.148;2023-07-20T04:38:55;12.90;99.90
52435;DHT22;38354;52.892;6.148;2023-07-20T04:41:20;12.90;99.90
52435;DHT22;38354;52.892;6.148;2023-07-20T04:43:46;12.90;99.90
52435;DHT22;38354;52.892;6.148;2023-07-20T04:46:12;12.90;99.90
52435;DHT22;38354;52.892;6.148;2023-07-20T04:48:37;12.90;99.90
52435;DHT22;38354;52.892;6.148;2023-07-20T04:51:03;12.90;99.90
52435;DHT22;38354;52.892;6.148;2023-07-20T04:53:29;12.90;99.90
52435;DHT22;38354;52.892;6.148;2023-07-20T04:55:56;12.90;99.90
52435;DHT22;38354;52.892;6.148;2023-07-20T04:58:22;12.90;99.90
52435;DHT22;38354;52.892;6.148;2023-07-20T05:00:48;13.00;99.90
52435;DHT22;38354;52.892;6.148;2023-07-20T05:03:13;13.00;99.90
52435;DHT22;38354;52.892;6.148;2023-07-20T05:05:39;12.90;99.90
52435;DHT22;38354;52.892;6.148;2023-07-20T05:08:04;13.00;99.90
52435;DHT22;38354;52.892;6.148;2023-07-20T05:10:30;12.90;99.90
52435;DHT22;38354;52.892;6.148;2023-07-20T05:12:56;12.90;99.90
52435;DHT22;38354;52.892;6.148;2023-07-20T05:15:21;12.90;99.90
52435;DHT22;38354;52.892;6.148;2023-07-20T05:17:47;13.00;99.90
52435;DHT22;38354;52.892;6.148;2023-07-20T05:20:14;13.00;99.90
52435;DHT22;38354;52.892;6.148;2023-07-20T05:22:39;13.00;99.90
52435;DHT22;38354;52.892;6.148;2023-07-20T05:25:08;13.00;99.90
52435;DHT22;38354;52.892;6.148;2023-07-20T05:27:35;13.00;99.90
52435;DHT22;38354;52.892;6.148;2023-07-20T05:30:01;13.10;99.90
52435;DHT22;38354;52.892;6.148;2023-07-20T05:32:27;13.10;99.90
52435;DHT22;38354;52.892;6.148;2023-07-20T05:34:53;13.20;99.90
52435;DHT22;38354;52.892;6.148;2023-07-20T05:37:19;13.20;99.90
52435;DHT22;38354;52.892;6.148;2023-07-20T05:39:45;13.30;99.90
52435;DHT22;38354;52.892;6.148;2023-07-20T05:42:10;13.30;99.90
52435;DHT22;38354;52.892;6.148;2023-07-20T05:44:36;13.40;99.90
52435;DHT22;38354;52.892;6.148;2023-07-20T05:47:01;13.50;99.90
52435;DHT22;38354;52.892;6.148;2023-07-20T05:49:28;13.50;99.90
52435;DHT22;38354;52.892;6.148;2023-07-20T05:51:54;13.50;99.90
52435;DHT22;38354;52.892;6.148;2023-07-20T05:54:20;13.60;99.90
52435;DHT22;38354;52.892;6.148;2023-07-20T05:56:45;13.60;99.90
52435;DHT22;38354;52.892;6.148;2023-07-20T05:59:11;13.70;99.90
52435;DHT22;38354;52.892;6.148;2023-07-20T06:01:37;13.80;99.90
52435;DHT22;38354;52.892;6.148;2023-07-20T06:04:02;13.90;99.90
52435;DHT22;38354;52.892;6.148;2023-07-20T06:06:28;13.90;99.90
52435;DHT22;38354;52.892;6.148;2023-07-20T06:08:54;14.00;99.90
52435;DHT22;38354;52.892;6.148;2023-07-20T06:11:20;14.00;99.90
52435;DHT22;38354;52.892;6.148;2023-07-20T06:13:45;14.10;99.90
52435;DHT22;38354;52.892;6.148;2023-07-20T06:16:11;14.10;99.90
52435;DHT22;38354;52.892;6.148;2023-07-20T06:18:36;14.20;99.90
52435;DHT22;38354;52.892;6.148;2023-07-20T06:21:02;14.30;99.90
52435;DHT22;38354;52.892;6.148;2023-07-20T06:23:28;14.40;99.90
52435;DHT22;38354;52.892;6.148;2023-07-20T06:25:53;14.40;99.90
52435;DHT22;38354;52.892;6.148;2023-07-20T06:28:19;14.50;99.90
52435;DHT22;38354;52.892;6.148;2023-07-20T06:30:44;14.50;99.90
52435;DHT22;38354;52.892;6.148;2023-07-20T06:33:10;14.60;99.90
52435;DHT22;38354;52.892;6.148;2023-07-20T06:35:35;14.70;99.90
52435;DHT22;38354;52.892;6.148;2023-07-20T06:38:01;14.80;99.90
52435;DHT22;38354;52.892;6.148;2023-07-20T06:40:29;14.90;99.90
52435;DHT22;38354;52.892;6.148;2023-07-20T06:42:55;14.90;99.90
52435;DHT22;38354;52.892;6.148;2023-07-20T06:45:20;15.00;99.90
52435;DHT22;38354;52.892;6.148;2023-07-20T06:47:46;15.00;99.90
52435;DHT22;38354;52.892;6.148;2023-07-20T06:50:11;15.10;99.90
52435;DHT22;38354;52.892;6.148;2023-07-20T06:52:37;15.10;99.90
52435;DHT22;38354;52.892;6.148;2023-07-20T06:55:03;15.20;99.90
52435;DHT22;38354;52.892;6.148;2023-07-20T06:57:29;15.30;99.90
52435;DHT22;38354;52.892;6.148;2023-07-20T06:59:54;15.40;99.90
52435;DHT22;38354;52.892;6.148;2023-07-20T07:02:20;15.50;99.90
52435;DHT22;38354;52.892;6.148;2023-07-20T07:04:45;15.60;99.90
52435;DHT22;38354;52.892;6.148;2023-07-20T07:07:15;15.70;99.90
52435;DHT22;38354;52.892;6.148;2023-07-20T07:09:41;15.80;99.90
52435;DHT22;38354;52.892;6.148;2023-07-20T07:12:07;15.80;99.90
52435;DHT22;38354;52.892;6.148;2023-07-20T07:14:32;15.80;99.90
52435;DHT22;38354;52.892;6.148;2023-07-20T07:16:58;15.80;99.90
52435;DHT22;38354;52.892;6.148;2023-07-20T07:19:23;15.80;99.90
52435;DHT22;38354;52.892;6.148;2023-07-20T07:21:49;15.80;99.90
52435;DHT22;38354;52.892;6.148;2023-07-20T07:24:14;15.90;99.90
52435;DHT22;38354;52.892;6.148;2023-07-20T07:26:40;15.90;99.90
52435;DHT22;38354;52.892;6.148;2023-07-20T07:29:05;16.00;99.90
52435;DHT22;38354;52.892;6.148;2023-07-20T07:31:33;16.10;99.90
52435;DHT22;38354;52.892;6.148;2023-07-20T07:33:59;16.20;99.90
52435;DHT22;38354;52.892;6.148;2023-07-20T07:36:24;16.30;99.90
52435;DHT22;38354;52.892;6.148;2023-07-20T07:38:50;16.30;99.90
52435;DHT22;38354;52.892;6.148;2023-07-20T07:41:16;16.30;99.90
52435;DHT22;38354;52.892;6.148;2023-07-20T07:43:41;16.30;99.90
52435;DHT22;38354;52.892;6.148;2023-07-20T07:46:07;16.30;99.90
52435;DHT22;38354;52.892;6.148;2023-07-20T07:48:32;16.20;99.90
52435;DHT22;38354;52.892;6.148;2023-07-20T07:50:58;16.20;99.90
52435;DHT22;38354;52.892;6.148;2023-07-20T07:53:23;16.20;99.90
52435;DHT22;38354;52.892;6.148;2023-07-20T07:55:51;16.20;99.90
52435;DHT22;38354;52.892;6.148;2023-07-20T07:58:17;16.30;99.90
52435;DHT22;38354;52.892;6.148;2023-07-20T08:00:42;16.30;99.90
52435;DHT22;38354;52.892;6.148;2023-07-20T08:03:09;16.40;99.90
52435;DHT22;38354;52.892;6.148;2023-07-20T08:05:35;16.50;99.90
52435;DHT22;38354;52.892;6.148;2023-07-20T08:08:04;16.60;99.90
52435;DHT22;38354;52.892;6.148;2023-07-20T08:10:30;16.60;99.90
52435;DHT22;38354;52.892;6.148;2023-07-20T08:12:55;16.70;99.90
52435;DHT22;38354;52.892;6.148;2023-07-20T08:15:21;16.80;99.90
52435;DHT22;38354;52.892;6.148;2023-07-20T08:17:47;16.90;99.90
52435;DHT22;38354;52.892;6.148;2023-07-20T08:20:13;17.00;99.90
52435;DHT22;38354;52.892;6.148;2023-07-20T08:22:39;17.00;99.90
52435;DHT22;38354;52.892;6.148;2023-07-20T08:25:05;17.00;99.90
52435;DHT22;38354;52.892;6.148;2023-07-20T08:27:31;17.00;99.90
52435;DHT22;38354;52.892;6.148;2023-07-20T08:29:57;17.10;99.90
52435;DHT22;38354;52.892;6.148;2023-07-20T08:32:22;17.20;99.90
52435;DHT22;38354;52.892;6.148;2023-07-20T08:34:48;17.30;99.90
52435;DHT22;38354;52.892;6.148;2023-07-20T08:37:13;17.40;99.90
52435;DHT22;38354;52.892;6.148;2023-07-20T08:39:39;17.40;99.90
52435;DHT22;38354;52.892;6.148;2023-07-20T08:42:05;17.40;99.90
52435;DHT22;38354;52.892;6.148;2023-07-20T08:44:32;17.40;99.90
52435;DHT22;38354;52.892;6.148;2023-07-20T08:46:58;17.50;99.90
52435;DHT22;38354;52.892;6.148;2023-07-20T08:49:24;17.60;99.90
52435;DHT22;38354;52.892;6.148;2023-07-20T08:51:49;17.70;99.90
52435;DHT22;38354;52.892;6.148;2023-07-20T08:54:16;17.90;99.90
52435;DHT22;38354;52.892;6.148;2023-07-20T08:56:42;17.90;99.90
52435;DHT22;38354;52.892;6.148;2023-07-20T08:59:08;17.70;99.90
52435;DHT22;38354;52.892;6.148;2023-07-20T09:01:34;17.80;99.90
52435;DHT22;38354;52.892;6.148;2023-07-20T09:04:00;17.90;99.90
52435;DHT22;38354;52.892;6.148;2023-07-20T09:06:26;18.10;99.90
52435;DHT22;38354;52.892;6.148;2023-07-20T09:08:51;18.10;99.90
52435;DHT22;38354;52.892;6.148;2023-07-20T09:11:17;18.10;99.90
52435;DHT22;38354;52.892;6.148;2023-07-20T09:13:43;18.10;99.90
52435;DHT22;38354;52.892;6.148;2023-07-20T09:16:15;18.00;99.90
52435;DHT22;38354;52.892;6.148;2023-07-20T09:18:41;18.20;99.90
52435;DHT22;38354;52.892;6.148;2023-07-20T09:21:06;18.40;99.90
52435;DHT22;38354;52.892;6.148;2023-07-20T09:25:58;18.50;99.90
52435;DHT22;38354;52.892;6.148;2023-07-20T09:28:23;18.50;99.90
52435;DHT22;38354;52.892;6.148;2023-07-20T09:30:49;18.40;99.90
52435;DHT22;38354;52.892;6.148;2023-07-20T09:33:18;18.30;99.90
52435;DHT22;38354;52.892;6.148;2023-07-20T09:35:44;18.30;99.90
52435;DHT22;38354;52.892;6.148;2023-07-20T09:38:10;18.20;99.90
52435;DHT22;38354;52.892;6.148;2023-07-20T09:40:39;18.20;99.90
52435;DHT22;38354;52.892;6.148;2023-07-20T09:43:07;18.40;99.90
52435;DHT22;38354;52.892;6.148;2023-07-20T09:45:33;18.60;99.90
52435;DHT22;38354;52.892;6.148;2023-07-20T09:48:02;18.80;99.90
52435;DHT22;38354;52.892;6.148;2023-07-20T09:50:28;19.00;99.90
52435;DHT22;38354;52.892;6.148;2023-07-20T09:52:54;19.20;99.90
52435;DHT22;38354;52.892;6.148;2023-07-20T09:55:19;19.50;99.90
52435;DHT22;38354;52.892;6.148;2023-07-20T09:57:46;19.50;99.90
52435;DHT22;38354;52.892;6.148;2023-07-20T10:00:12;19.30;99.90
52435;DHT22;38354;52.892;6.148;2023-07-20T10:02:41;18.90;99.90
52435;DHT22;38354;52.892;6.148;2023-07-20T10:05:07;18.70;99.90
52435;DHT22;38354;52.892;6.148;2023-07-20T10:07:33;18.80;99.90
52435;DHT22;38354;52.892;6.148;2023-07-20T10:10:01;19.00;99.90
52435;DHT22;38354;52.892;6.148;2023-07-20T10:12:27;19.00;99.90
52435;DHT22;38354;52.892;6.148;2023-07-20T10:14:54;19.00;99.90
52435;DHT22;38354;52.892;6.148;2023-07-20T10:17:23;18.90;99.90
52435;DHT22;38354;52.892;6.148;2023-07-20T10:19:51;19.00;99.90
52435;DHT22;38354;52.892;6.148;2023-07-20T10:22:25;19.20;99.90
52435;DHT22;38354;52.892;6.148;2023-07-20T10:24:51;19.30;99.90
52435;DHT22;38354;52.892;6.148;2023-07-20T10:27:22;19.40;99.90
52435;DHT22;38354;52.892;6.148;2023-07-20T10:29:47;19.40;99.90
52435;DHT22;38354;52.892;6.148;2023-07-20T10:32:13;19.40;99.90
52435;DHT22;38354;52.892;6.148;2023-07-20T10:34:39;19.50;99.90
52435;DHT22;38354;52.892;6.148;2023-07-20T10:37:05;19.70;99.90
52435;DHT22;38354;52.892;6.148;2023-07-20T10:39:31;20.00;99.90
52435;DHT22;38354;52.892;6.148;2023-07-20T10:42:03;20.10;99.90
52435;DHT22;38354;52.892;6.148;2023-07-20T10:44:31;20.10;99.90
52435;DHT22;38354;52.892;6.148;2023-07-20T10:47:01;20.00;99.90
52435;DHT22;38354;52.892;6.148;2023-07-20T10:49:28;19.90;99.90
52435;DHT22;38354;52.892;6.148;2023-07-20T10:51:57;20.10;99.90
52435;DHT22;38354;52.892;6.148;2023-07-20T10:56:54;20.20;99.90
52435;DHT22;38354;52.892;6.148;2023-07-20T10:59:36;20.20;99.90
52435;DHT22;38354;52.892;6.148;2023-07-20T11:02:05;20.10;99.90
52435;DHT22;38354;52.892;6.148;2023-07-20T11:04:38;20.10;99.90
52435;DHT22;38354;52.892;6.148;2023-07-20T11:07:04;20.00;99.90
52435;DHT22;38354;52.892;6.148;2023-07-20T11:09:33;19.70;99.90
52435;DHT22;38354;52.892;6.148;2023-07-20T11:12:09;19.60;99.90
52435;DHT22;38354;52.892;6.148;2023-07-20T11:14:35;19.30;99.90
52435;DHT22;38354;52.892;6.148;2023-07-20T11:17:11;19.30;99.90
52435;DHT22;38354;52.892;6.148;2023-07-20T11:19:38;19.30;99.90
52435;DHT22;38354;52.892;6.148;2023-07-20T11:22:04;19.40;99.90
52435;DHT22;38354;52.892;6.148;2023-07-20T11:24:32;19.50;99.90
52435;DHT22;38354;52.892;6.148;2023-07-20T11:26:58;19.60;99.90
52435;DHT22;38354;52.892;6.148;2023-07-20T11:29:24;19.70;99.90
52435;DHT22;38354;52.892;6.148;2023-07-20T11:31:50;19.80;99.90
52435;DHT22;38354;52.892;6.148;2023-07-20T11:34:17;19.90;99.90
52435;DHT22;38354;52.892;6.148;2023-07-20T11:36:46;20.00;99.90
52435;DHT22;38354;52.892;6.148;2023-07-20T11:39:12;20.00;99.90
52435;DHT22;38354;52.892;6.148;2023-07-20T11:41:38;19.90;99.90
52435;DHT22;38354;52.892;6.148;2023-07-20T11:44:05;19.90;99.90
52435;DHT22;38354;52.892;6.148;2023-07-20T11:46:41;20.10;99.90
52435;DHT22;38354;52.892;6.148;2023-07-20T11:49:07;20.20;99.90
52435;DHT22;38354;52.892;6.148;2023-07-20T11:51:34;20.20;99.90
52435;DHT22;38354;52.892;6.148;2023-07-20T11:54:00;20.30;99.90
52435;DHT22;38354;52.892;6.148;2023-07-20T11:56:26;20.40;99.90
52435;DHT22;38354;52.892;6.148;2023-07-20T11:58:55;20.40;99.90
52435;DHT22;38354;52.892;6.148;2023-07-20T12:01:23;20.50;99.90
52435;DHT22;38354;52.892;6.148;2023-07-20T12:03:48;20.60;99.90
52435;DHT22;38354;52.892;6.148;2023-07-20T12:06:14;20.60;99.90
52435;DHT22;38354;52.892;6.148;2023-07-20T12:08:43;20.70;99.90
52435;DHT22;38354;52.892;6.148;2023-07-20T12:11:10;20.80;99.90
52435;DHT22;38354;52.892;6.148;2023-07-20T12:13:36;20.70;99.90
52435;DHT22;38354;52.892;6.148;2023-07-20T12:16:11;20.70;99.90
52435;DHT22;38354;52.892;6.148;2023-07-20T12:18:38;20.70;99.90
52435;DHT22;38354;52.892;6.148;2023-07-20T12:21:05;20.70;99.90
52435;DHT22;38354;52.892;6.148;2023-07-20T12:23:38;20.70;99.90
52435;DHT22;38354;52.892;6.148;2023-07-20T12:26:06;20.80;99.90
52435;DHT22;38354;52.892;6.148;2023-07-20T12:28:31;20.70;99.90
52435;DHT22;38354;52.892;6.148;2023-07-20T12:30:57;20.60;99.90
52435;DHT22;38354;52.892;6.148;2023-07-20T12:33:22;20.40;99.90
52435;DHT22;38354;52.892;6.148;2023-07-20T12:35:48;20.30;99.90
52435;DHT22;38354;52.892;6.148;2023-07-20T12:38:15;20.30;99.90
52435;DHT22;38354;52.892;6.148;2023-07-20T12:40:41;20.20;99.90
52435;DHT22;38354;52.892;6.148;2023-07-20T12:43:06;20.00;99.90
52435;DHT22;38354;52.892;6.148;2023-07-20T12:45:33;19.70;99.90
52435;DHT22;38354;52.892;6.148;2023-07-20T12:47:58;19.60;99.90
52435;DHT22;38354;52.892;6.148;2023-07-20T12:50:24;19.70;99.90
52435;DHT22;38354;52.892;6.148;2023-07-20T12:52:50;20.00;99.90
52435;DHT22;38354;52.892;6.148;2023-07-20T12:55:15;20.10;99.90
52435;DHT22;38354;52.892;6.148;2023-07-20T12:57:41;20.30;99.90
52435;DHT22;38354;52.892;6.148;2023-07-20T13:00:10;20.60;99.90
52435;DHT22;38354;52.892;6.148;2023-07-20T13:02:38;20.80;99.90
52435;DHT22;38354;52.892;6.148;2023-07-20T13:05:04;21.10;99.90
52435;DHT22;38354;52.892;6.148;2023-07-20T13:07:30;21.10;99.90
52435;DHT22;38354;52.892;6.148;2023-07-20T13:09:57;21.20;99.90
52435;DHT22;38354;52.892;6.148;2023-07-20T13:12:24;21.20;99.90
52435;DHT22;38354;52.892;6.148;2023-07-20T13:14:50;21.30;99.90
52435;DHT22;38354;52.892;6.148;2023-07-20T13:17:15;21.50;99.90
52435;DHT22;38354;52.892;6.148;2023-07-20T13:19:41;21.70;99.90
52435;DHT22;38354;52.892;6.148;2023-07-20T13:22:06;21.90;99.90
52435;DHT22;38354;52.892;6.148;2023-07-20T13:24:32;21.80;97.80
52435;DHT22;38354;52.892;6.148;2023-07-20T13:26:57;21.60;99.30
52435;DHT22;38354;52.892;6.148;2023-07-20T13:29:23;21.80;99.90
52435;DHT22;38354;52.892;6.148;2023-07-20T13:31:49;21.90;99.90
52435;DHT22;38354;52.892;6.148;2023-07-20T13:34:14;21.70;99.60
52435;DHT22;38354;52.892;6.148;2023-07-20T13:36:40;21.50;99.90
52435;DHT22;38354;52.892;6.148;2023-07-20T13:39:06;21.50;99.90
52435;DHT22;38354;52.892;6.148;2023-07-20T13:41:31;21.30;99.60
52435;DHT22;38354;52.892;6.148;2023-07-20T13:43:57;21.40;99.90
52435;DHT22;38354;52.892;6.148;2023-07-20T13:46:23;21.50;99.10
52435;DHT22;38354;52.892;6.148;2023-07-20T13:48:48;21.60;97.40
52435;DHT22;38354;52.892;6.148;2023-07-20T13:51:14;21.50;98.50
52435;DHT22;38354;52.892;6.148;2023-07-20T13:53:39;21.50;99.10
52435;DHT22;38354;52.892;6.148;2023-07-20T13:56:05;21.50;98.90
52435;DHT22;38354;52.892;6.148;2023-07-20T13:58:32;21.40;95.60
52435;DHT22;38354;52.892;6.148;2023-07-20T14:00:57;21.40;97.20
52435;DHT22;38354;52.892;6.148;2023-07-20T14:03:23;21.30;96.30
52435;DHT22;38354;52.892;6.148;2023-07-20T14:05:49;21.40;97.30
52435;DHT22;38354;52.892;6.148;2023-07-20T14:08:14;21.60;97.20
52435;DHT22;38354;52.892;6.148;2023-07-20T14:10:41;21.70;97.20
52435;DHT22;38354;52.892;6.148;2023-07-20T14:13:07;21.60;96.70
52435;DHT22;38354;52.892;6.148;2023-07-20T14:15:33;21.70;97.20
52435;DHT22;38354;52.892;6.148;2023-07-20T14:18:00;21.80;96.80
52435;DHT22;38354;52.892;6.148;2023-07-20T14:20:25;21.80;96.10
52435;DHT22;38354;52.892;6.148;2023-07-20T14:22:51;21.90;97.00
52435;DHT22;38354;52.892;6.148;2023-07-20T14:25:16;21.90;95.90
52435;DHT22;38354;52.892;6.148;2023-07-20T14:27:42;22.00;97.00
52435;DHT22;38354;52.892;6.148;2023-07-20T14:30:07;22.10;97.60
52435;DHT22;38354;52.892;6.148;2023-07-20T14:32:34;22.10;97.20
52435;DHT22;38354;52.892;6.148;2023-07-20T14:34:59;22.00;97.90
52435;DHT22;38354;52.892;6.148;2023-07-20T14:37:25;22.00;97.20
52435;DHT22;38354;52.892;6.148;2023-07-20T14:39:51;22.20;98.80
52435;DHT22;38354;52.892;6.148;2023-07-20T14:42:16;22.10;98.20
52435;DHT22;38354;52.892;6.148;2023-07-20T14:44:43;21.90;98.30
52435;DHT22;38354;52.892;6.148;2023-07-20T14:47:08;21.90;98.20
52435;DHT22;38354;52.892;6.148;2023-07-20T14:49:34;21.70;98.10
52435;DHT22;38354;52.892;6.148;2023-07-20T14:51:59;21.50;98.20
52435;DHT22;38354;52.892;6.148;2023-07-20T14:54:25;21.60;99.50
52435;DHT22;38354;52.892;6.148;2023-07-20T14:56:51;21.50;98.20
52435;DHT22;38354;52.892;6.148;2023-07-20T14:59:19;21.50;97.60
52435;DHT22;38354;52.892;6.148;2023-07-20T15:01:45;21.30;98.10
52435;DHT22;38354;52.892;6.148;2023-07-20T15:04:11;21.50;98.60
52435;DHT22;38354;52.892;6.148;2023-07-20T15:06:37;21.40;98.60
52435;DHT22;38354;52.892;6.148;2023-07-20T15:09:02;21.20;98.10
52435;DHT22;38354;52.892;6.148;2023-07-20T15:11:29;21.10;98.30
52435;DHT22;38354;52.892;6.148;2023-07-20T15:13:55;20.90;99.20
52435;DHT22;38354;52.892;6.148;2023-07-20T15:16:22;20.80;99.90
52435;DHT22;38354;52.892;6.148;2023-07-20T15:18:47;20.60;99.80
52435;DHT22;38354;52.892;6.148;2023-07-20T15:21:13;20.50;99.90
52435;DHT22;38354;52.892;6.148;2023-07-20T15:23:38;20.50;99.90
52435;DHT22;38354;52.892;6.148;2023-07-20T15:26:04;20.30;99.90
52435;DHT22;38354;52.892;6.148;2023-07-20T15:28:29;20.30;99.90
52435;DHT22;38354;52.892;6.148;2023-07-20T15:31:02;20.20;99.90
52435;DHT22;38354;52.892;6.148;2023-07-20T15:33:28;20.20;99.90
52435;DHT22;38354;52.892;6.148;2023-07-20T15:35:54;20.20;99.90
52435;DHT22;38354;52.892;6.148;2023-07-20T15:38:19;20.30;99.90
52435;DHT22;38354;52.892;6.148;2023-07-20T15:40:45;20.40;99.90
52435;DHT22;38354;52.892;6.148;2023-07-20T15:43:11;20.60;99.90
52435;DHT22;38354;52.892;6.148;2023-07-20T15:45:37;20.90;99.90
52435;DHT22;38354;52.892;6.148;2023-07-20T15:48:03;21.10;99.90
52435;DHT22;38354;52.892;6.148;2023-07-20T15:50:28;21.20;99.90
52435;DHT22;38354;52.892;6.148;2023-07-20T15:52:54;21.40;99.90
52435;DHT22;38354;52.892;6.148;2023-07-20T15:55:19;21.50;99.90
52435;DHT22;38354;52.892;6.148;2023-07-20T15:57:45;21.40;99.90
52435;DHT22;38354;52.892;6.148;2023-07-20T16:00:11;21.30;99.90
52435;DHT22;38354;52.892;6.148;2023-07-20T16:02:36;21.40;99.90
52435;DHT22;38354;52.892;6.148;2023-07-20T16:05:02;21.50;99.90
52435;DHT22;38354;52.892;6.148;2023-07-20T16:07:28;21.60;99.90
52435;DHT22;38354;52.892;6.148;2023-07-20T16:09:54;21.80;99.60
52435;DHT22;38354;52.892;6.148;2023-07-20T16:12:23;21.80;99.80
52435;DHT22;38354;52.892;6.148;2023-07-20T16:14:51;21.70;99.40
52435;DHT22;38354;52.892;6.148;2023-07-20T16:17:17;21.80;98.90
52435;DHT22;38354;52.892;6.148;2023-07-20T16:19:42;21.90;99.90
52435;DHT22;38354;52.892;6.148;2023-07-20T16:22:08;21.90;99.90
52435;DHT22;38354;52.892;6.148;2023-07-20T16:24:37;22.00;99.90
52435;DHT22;38354;52.892;6.148;2023-07-20T16:27:03;22.10;99.90
52435;DHT22;38354;52.892;6.148;2023-07-20T16:29:30;22.10;99.90
52435;DHT22;38354;52.892;6.148;2023-07-20T16:31:55;22.20;99.90
52435;DHT22;38354;52.892;6.148;2023-07-20T16:34:21;22.10;99.90
52435;DHT22;38354;52.892;6.148;2023-07-20T16:36:46;22.10;99.20
52435;DHT22;38354;52.892;6.148;2023-07-20T16:39:12;22.10;99.90
52435;DHT22;38354;52.892;6.148;2023-07-20T16:41:37;21.80;99.90
52435;DHT22;38354;52.892;6.148;2023-07-20T16:44:03;21.60;99.90
52435;DHT22;38354;52.892;6.148;2023-07-20T16:46:29;21.50;99.90
52435;DHT22;38354;52.892;6.148;2023-07-20T16:48:54;21.60;99.90
52435;DHT22;38354;52.892;6.148;2023-07-20T16:51:20;21.60;99.90
52435;DHT22;38354;52.892;6.148;2023-07-20T16:53:45;21.70;99.90
52435;DHT22;38354;52.892;6.148;2023-07-20T16:56:11;21.80;99.90
52435;DHT22;38354;52.892;6.148;2023-07-20T16:58:37;21.70;99.90
52435;DHT22;38354;52.892;6.148;2023-07-20T17:01:03;21.70;99.90
52435;DHT22;38354;52.892;6.148;2023-07-20T17:03:32;21.70;99.90
52435;DHT22;38354;52.892;6.148;2023-07-20T17:05:58;21.60;99.90
52435;DHT22;38354;52.892;6.148;2023-07-20T17:08:23;21.40;99.90
52435;DHT22;38354;52.892;6.148;2023-07-20T17:10:49;21.30;99.90
52435;DHT22;38354;52.892;6.148;2023-07-20T17:13:14;21.10;99.90
52435;DHT22;38354;52.892;6.148;2023-07-20T17:15:41;20.90;99.90
52435;DHT22;38354;52.892;6.148;2023-07-20T17:18:10;20.90;99.90
52435;DHT22;38354;52.892;6.148;2023-07-20T17:20:35;20.80;99.90
52435;DHT22;38354;52.892;6.148;2023-07-20T17:23:01;20.70;99.90
52435;DHT22;38354;52.892;6.148;2023-07-20T17:25:26;20.70;99.90
52435;DHT22;38354;52.892;6.148;2023-07-20T17:27:53;20.80;99.90
52435;DHT22;38354;52.892;6.148;2023-07-20T17:30:19;21.00;99.90
52435;DHT22;38354;52.892;6.148;2023-07-20T17:32:44;21.10;99.90
52435;DHT22;38354;52.892;6.148;2023-07-20T17:35:10;21.20;99.90
52435;DHT22;38354;52.892;6.148;2023-07-20T17:37:41;21.30;99.90
52435;DHT22;38354;52.892;6.148;2023-07-20T17:40:07;21.30;99.90
52435;DHT22;38354;52.892;6.148;2023-07-20T17:42:35;21.40;99.90
52435;DHT22;38354;52.892;6.148;2023-07-20T17:45:00;21.30;99.90
52435;DHT22;38354;52.892;6.148;2023-07-20T17:47:26;21.30;99.90
52435;DHT22;38354;52.892;6.148;2023-07-20T17:49:51;21.30;99.90
52435;DHT22;38354;52.892;6.148;2023-07-20T17:52:17;21.30;99.90
52435;DHT22;38354;52.892;6.148;2023-07-20T17:54:42;21.30;99.90
52435;DHT22;38354;52.892;6.148;2023-07-20T17:57:08;21.20;99.90
52435;DHT22;38354;52.892;6.148;2023-07-20T17:59:33;21.20;99.90
52435;DHT22;38354;52.892;6.148;2023-07-20T18:02:06;21.10;99.90
52435;DHT22;38354;52.892;6.148;2023-07-20T18:04:31;21.10;99.90
52435;DHT22;38354;52.892;6.148;2023-07-20T18:06:57;21.10;99.90
52435;DHT22;38354;52.892;6.148;2023-07-20T18:09:22;21.10;99.90
52435;DHT22;38354;52.892;6.148;2023-07-20T18:11:48;21.00;99.90
52435;DHT22;38354;52.892;6.148;2023-07-20T18:14:13;21.00;99.90
52435;DHT22;38354;52.892;6.148;2023-07-20T18:16:39;20.90;99.90
52435;DHT22;38354;52.892;6.148;2023-07-20T18:19:05;20.90;99.90
52435;DHT22;38354;52.892;6.148;2023-07-20T18:21:31;20.80;99.90
52435;DHT22;38354;52.892;6.148;2023-07-20T18:23:56;20.80;99.90
52435;DHT22;38354;52.892;6.148;2023-07-20T18:26:22;20.70;99.90
52435;DHT22;38354;52.892;6.148;2023-07-20T18:28:48;20.60;99.90